Time;durP1;ratioP1;P1;durP2;ratioP2;P2;SDS_P1;SDS_P2;PMS_P1;PMS_P2;Temp;Humidity;BMP_temperature;BMP_pressure;BME280_temperature;BME280_humidity;BME280_pressure;Samples;Min_cycle;Max_cycle;Signal;HPM_P1;HPM_P2
2023/05/05 00:01:07;;;;;;;3.20;2.20;;;;;;;21.96;37.01;101629.53;4991852;28;20165;-78
2023/05/05 00:03:36;;;;;;;2.33;2.10;;;;;;;22.05;36.80;101632.16;5003525;28;20034;-78
2023/05/05 00:06:03;;;;;;;1.92;1.77;;;;;;;22.01;36.71;101624.53;5019597;28;20088;-79
2023/05/05 00:08:28;;;;;;;3.05;2.00;;;;;;;21.99;36.74;101631.03;5000086;28;20313;-79
2023/05/05 00:10:55;;;;;;;3.97;2.10;;;;;;;22.04;36.78;101626.00;5024804;28;20076;-79
2023/05/05 00:13:21;;;;;;;2.13;1.83;;;;;;;21.94;36.78;101614.81;5020388;28;20073;-79
2023/05/05 00:15:49;;;;;;;2.28;1.90;;;;;;;22.02;36.78;101620.06;5020330;28;20030;-79
2023/05/05 00:18:16;;;;;;;2.03;1.85;;;;;;;21.90;36.92;101611.69;5036284;28;20160;-79
2023/05/05 00:20:42;;;;;;;2.08;1.88;;;;;;;21.96;36.82;101603.03;5004020;28;20053;-79
2023/05/05 00:23:08;;;;;;;2.72;2.10;;;;;;;21.97;36.54;101609.97;5026501;28;20120;-79
2023/05/05 00:25:34;;;;;;;2.35;2.00;;;;;;;21.73;36.97;101569.53;5000549;28;20065;-79
2023/05/05 00:27:59;;;;;;;2.25;1.85;;;;;;;22.00;36.52;101603.50;5022987;28;20056;-80
2023/05/05 00:30:26;;;;;;;2.65;1.90;;;;;;;21.89;36.80;101594.09;5003326;28;20038;-80
2023/05/05 00:32:52;;;;;;;2.60;1.90;;;;;;;21.80;36.76;101573.13;5021552;28;20042;-79
2023/05/05 00:35:18;;;;;;;3.20;2.10;;;;;;;21.94;36.88;101591.78;5000545;28;20047;-79
2023/05/05 00:37:44;;;;;;;2.28;1.95;;;;;;;21.81;36.48;101569.47;5023406;28;20112;-79
2023/05/05 00:40:10;;;;;;;4.50;2.30;;;;;;;21.92;36.61;101593.78;4984412;28;20038;-79
2023/05/05 00:42:43;;;;;;;2.85;2.30;;;;;;;21.81;36.67;101575.59;4981668;28;20040;-79
2023/05/05 00:45:14;;;;;;;2.13;1.80;;;;;;;21.90;36.54;101585.16;4980424;28;20060;-78
2023/05/05 00:48:00;;;;;;;3.40;2.33;;;;;;;21.90;36.80;101584.31;4999850;28;20412;-79
2023/05/05 00:50:30;;;;;;;2.10;1.70;;;;;;;21.77;36.76;101563.69;4982527;28;20054;-78
2023/05/05 00:52:57;;;;;;;;;;;;;;;21.92;36.63;101571.75;5002172;28;20030;-78
2023/05/05 00:55:23;;;;;;;3.25;2.05;;;;;;;21.65;36.54;101536.75;4985611;28;19981;-78
2023/05/05 00:57:49;;;;;;;2.95;2.10;;;;;;;21.86;36.66;101573.25;4982849;28;20073;-78
2023/05/05 01:00:15;;;;;;;1.92;1.73;;;;;;;21.94;36.36;101577.69;4986822;28;20144;-78
2023/05/05 01:02:41;;;;;;;2.22;1.90;;;;;;;21.88;36.44;101552.69;4998911;28;20057;-77
2023/05/05 01:05:08;;;;;;;3.97;1.92;;;;;;;21.74;36.92;101555.28;5001138;28;20070;-78
2023/05/05 01:07:47;;;;;;;2.10;1.90;;;;;;;21.88;36.54;101560.63;4994822;28;20073;-78
2023/05/05 01:10:22;;;;;;;3.45;2.22;;;;;;;21.82;36.69;101552.56;4998571;28;20038;-78
2023/05/05 01:13:09;;;;;;;4.82;2.13;;;;;;;21.76;36.41;101532.88;5002721;28;20042;-78
2023/05/05 01:15:45;;;;;;;2.13;1.92;;;;;;;21.75;36.75;101528.59;4991751;28;20031;-78
2023/05/05 01:18:35;;;;;;;2.20;2.00;;;;;;;21.65;36.67;101512.91;4982302;28;20026;-77
2023/05/05 01:21:05;;;;;;;;;;;;;;;21.83;36.76;101538.31;4994362;28;20046;-77
2023/05/05 01:23:31;;;;;;;;;;;;;;;21.88;36.50;101538.59;4997154;28;19972;-78
2023/05/05 01:26:21;;;;;;;3.30;1.90;;;;;;;21.77;36.48;101525.75;5015341;28;20084;-78
2023/05/05 01:29:10;;;;;;;2.20;2.00;;;;;;;21.65;36.90;101522.69;4997286;28;20070;-78
2023/05/05 01:31:53;;;;;;;2.60;2.40;;;;;;;21.78;36.53;101536.19;4991513;28;20061;-78
2023/05/05 01:34:27;;;;;;;2.25;1.98;;;;;;;21.67;36.80;101513.53;4994406;28;20623;-78
2023/05/05 01:37:12;;;;;;;2.45;2.10;;;;;;;21.57;36.61;101493.59;4980652;28;20551;-78
2023/05/05 01:39:41;;;;;;;2.25;1.90;;;;;;;21.77;36.63;101521.28;4999341;28;20108;-77
2023/05/05 01:42:12;;;;;;;2.38;2.17;;;;;;;21.68;36.74;101514.38;4976338;28;20594;-78
2023/05/05 01:44:42;;;;;;;2.53;2.10;;;;;;;21.64;36.88;101505.94;4988964;28;20042;-78
2023/05/05 01:47:12;;;;;;;2.47;2.28;;;;;;;21.62;36.93;101500.00;5001303;28;20328;-78
2023/05/05 01:49:38;;;;;;;2.03;1.63;;;;;;;21.73;36.75;101522.66;4988876;28;20072;-78
2023/05/05 01:52:05;;;;;;;3.63;2.13;;;;;;;21.66;36.77;101500.47;4999194;28;20065;-78
2023/05/05 01:54:33;;;;;;;2.53;2.05;;;;;;;21.68;36.51;101499.28;5000954;28;20038;-78
2023/05/05 01:57:02;;;;;;;2.05;1.80;;;;;;;21.56;36.39;101494.59;4993580;28;20385;-78
2023/05/05 01:59:28;;;;;;;2.70;2.10;;;;;;;21.65;36.55;101504.94;4982437;28;20035;-78
2023/05/05 02:01:56;;;;;;;2.63;1.85;;;;;;;21.65;36.41;101502.28;4981384;28;20117;-78
2023/05/05 02:04:23;;;;;;;2.38;1.85;;;;;;;21.61;36.55;101516.09;4985842;28;20096;-78
2023/05/05 02:06:51;;;;;;;2.72;1.92;;;;;;;21.62;36.76;101518.56;5005240;28;20050;-78
2023/05/05 02:09:19;;;;;;;2.42;1.95;;;;;;;21.64;36.39;101518.38;4975480;28;20580;-79
2023/05/05 02:11:45;;;;;;;2.50;2.15;;;;;;;21.55;36.46;101496.41;5020320;28;20050;-78
2023/05/05 02:14:11;;;;;;;2.70;2.03;;;;;;;21.48;36.67;101494.63;4991339;28;20042;-78
2023/05/05 02:16:40;;;;;;;1.80;1.70;;;;;;;21.61;36.72;101510.78;5004277;28;20049;-78
2023/05/05 02:19:06;;;;;;;3.92;2.05;;;;;;;21.53;36.69;101498.38;5000295;28;20102;-78
2023/05/05 02:21:32;;;;;;;2.78;2.05;;;;;;;21.65;36.31;101504.13;4999832;28;20142;-78
2023/05/05 02:23:58;;;;;;;2.55;1.88;;;;;;;21.46;36.59;101481.53;4983173;28;20073;-77
2023/05/05 02:26:25;;;;;;;3.45;2.40;;;;;;;21.51;36.58;101488.97;4981871;28;20026;-78
2023/05/05 02:29:30;;;;;;;2.17;1.98;;;;;;;21.49;36.78;101489.13;4984536;28;20035;-78
2023/05/05 02:32:05;;;;;;;2.42;2.10;;;;;;;21.44;36.65;101483.56;4971518;28;20053;-78
2023/05/05 02:34:35;;;;;;;2.13;1.92;;;;;;;21.42;36.52;101486.38;4996318;28;20103;-78
2023/05/05 02:37:06;;;;;;;2.25;2.10;;;;;;;21.48;36.71;101486.66;4998546;28;20037;-78
2023/05/05 02:39:42;;;;;;;2.10;1.90;;;;;;;21.57;36.56;101507.66;5029054;28;20042;-78
2023/05/05 02:42:16;;;;;;;2.72;2.15;;;;;;;21.53;36.65;101495.72;5006522;28;20040;-78
2023/05/05 02:44:44;;;;;;;2.05;1.85;;;;;;;21.42;36.60;101478.44;5001806;28;20033;-78
2023/05/05 02:47:10;;;;;;;3.60;1.85;;;;;;;21.51;36.61;101502.22;5002910;28;20385;-78
2023/05/05 02:49:36;;;;;;;4.00;2.25;;;;;;;21.48;36.46;101498.09;5001387;28;20048;-78
2023/05/05 02:52:02;;;;;;;2.50;2.22;;;;;;;21.53;36.48;101492.25;5005765;28;20045;-79
2023/05/05 02:54:32;;;;;;;2.33;1.90;;;;;;;21.51;36.50;101497.75;5001966;28;20038;-78
2023/05/05 02:57:00;;;;;;;2.58;1.92;;;;;;;21.40;36.81;101475.13;4986043;28;20468;-78
2023/05/05 02:59:47;;;;;;;2.50;2.28;;;;;;;21.45;36.64;101490.50;5017850;28;20180;-78
2023/05/05 03:02:23;;;;;;;3.55;2.03;;;;;;;21.28;36.70;101455.31;5017038;28;20041;-78
2023/05/05 03:05:09;;;;;;;2.30;1.77;;;;;;;21.41;36.73;101471.47;5021721;28;20037;-77
2023/05/05 03:08:00;;;;;;;2.58;1.90;;;;;;;21.38;36.81;101477.13;5004320;28;20026;-78
2023/05/05 03:10:29;;;;;;;2.28;1.80;;;;;;;21.43;36.72;101466.00;5016534;28;20096;-78
2023/05/05 03:13:00;;;;;;;3.03;2.00;;;;;;;21.43;36.58;101481.91;5004733;28;20036;-77
2023/05/05 03:15:40;;;;;;;2.40;2.20;;;;;;;21.46;36.75;101489.50;5001491;28;20034;-78
2023/05/05 03:18:09;;;;;;;3.78;2.15;;;;;;;21.41;36.64;101489.19;5015179;28;20656;-77
2023/05/05 03:20:38;;;;;;;4.03;2.00;;;;;;;21.35;36.52;101493.34;5004801;28;20113;-77
2023/05/05 03:23:07;;;;;;;3.03;2.58;;;;;;;21.38;36.36;101495.69;5006227;28;20066;-77
2023/05/05 03:25:47;;;;;;;2.83;2.05;;;;;;;21.25;36.59;101468.91;5004620;28;20030;-78
2023/05/05 03:28:20;;;;;;;3.28;2.42;;;;;;;21.33;36.67;101502.47;5005541;28;20034;-77
2023/05/05 03:30:46;;;;;;;2.67;2.17;;;;;;;21.36;36.63;101502.13;5007618;28;20034;-77
2023/05/05 03:33:14;;;;;;;3.75;2.10;;;;;;;21.37;36.73;101491.38;5005599;28;20041;-78
2023/05/05 03:35:41;;;;;;;2.25;2.05;;;;;;;21.34;36.62;101482.94;5020486;28;20091;-77
2023/05/05 03:38:09;;;;;;;2.28;1.90;;;;;;;21.31;36.55;101472.69;5019359;28;20045;-77
2023/05/05 03:40:34;;;;;;;2.85;2.10;;;;;;;21.37;36.60;101490.56;5001048;28;20047;-77
2023/05/05 03:43:00;;;;;;;2.45;2.10;;;;;;;21.27;36.73;101484.63;4967299;28;20046;-77
2023/05/05 03:45:26;;;;;;;2.10;1.90;;;;;;;21.45;36.56;101505.56;4984697;28;20038;-78
2023/05/05 03:47:52;;;;;;;2.67;2.17;;;;;;;21.41;36.68;101503.28;4985443;28;20046;-78
2023/05/05 03:50:18;;;;;;;2.38;2.17;;;;;;;21.34;36.65;101488.22;4999697;28;20029;-78
2023/05/05 03:52:43;;;;;;;2.20;2.00;;;;;;;21.31;36.81;101510.59;4989508;28;20038;-77
2023/05/05 03:55:09;;;;;;;2.30;2.10;;;;;;;21.35;36.70;101532.25;5004704;28;20057;-77
2023/05/05 03:57:35;;;;;;;2.60;2.00;;;;;;;21.37;36.77;101535.59;4996072;28;20046;-78
2023/05/05 04:00:00;;;;;;;2.70;2.28;;;;;;;21.40;36.76;101546.66;4999967;28;20042;-77
2023/05/05 04:02:26;;;;;;;2.40;2.20;;;;;;;21.44;36.70;101549.78;4988006;28;20026;-77
2023/05/05 04:04:52;;;;;;;2.25;1.95;;;;;;;21.41;36.59;101561.56;4998927;28;20046;-78
2023/05/05 04:07:18;;;;;;;3.47;2.10;;;;;;;21.40;36.47;101564.38;4981855;28;20042;-78
2023/05/05 04:09:44;;;;;;;2.75;2.40;;;;;;;21.34;36.65;101567.69;4966550;28;20046;-78
2023/05/05 04:12:11;;;;;;;2.42;2.22;;;;;;;21.36;36.41;101573.66;4987588;28;20042;-78
2023/05/05 04:14:37;;;;;;;3.05;2.40;;;;;;;21.28;36.60;101542.72;4980839;28;20456;-78
2023/05/05 04:17:03;;;;;;;2.25;2.00;;;;;;;21.29;36.94;101562.09;4997158;28;20042;-77
2023/05/05 04:19:32;;;;;;;3.05;2.20;;;;;;;21.32;36.56;101570.53;4995111;28;20112;-78
2023/05/05 04:21:58;;;;;;;;;;;;;;;21.33;36.77;101564.22;4984967;28;20073;-78
2023/05/05 04:24:24;;;;;;;2.95;2.03;;;;;;;21.31;36.50;101581.28;4966998;28;19926;-78
2023/05/05 04:26:52;;;;;;;2.35;1.95;;;;;;;21.30;36.79;101599.00;4990397;28;20069;-78
2023/05/05 04:29:18;;;;;;;2.22;2.03;;;;;;;21.32;36.81;101575.00;4996634;28;20202;-78
2023/05/05 04:31:44;;;;;;;2.10;1.90;;;;;;;21.21;36.76;101557.63;4984956;28;20067;-77
2023/05/05 04:34:10;;;;;;;2.28;2.08;;;;;;;21.08;36.85;101552.06;4983566;28;20547;-80
2023/05/05 04:36:36;;;;;;;2.03;1.90;;;;;;;21.33;36.80;101574.00;4997447;28;20068;-78
2023/05/05 04:39:03;;;;;;;3.50;2.28;;;;;;;21.15;36.94;101563.59;4982961;28;20046;-78
2023/05/05 04:41:29;;;;;;;2.33;2.10;;;;;;;21.18;36.92;101552.66;4996746;28;20514;-78
2023/05/05 04:43:55;;;;;;;4.22;2.20;;;;;;;21.25;37.04;101561.63;4995797;28;20037;-78
2023/05/05 04:46:21;;;;;;;2.20;2.00;;;;;;;21.24;37.05;101564.41;4999174;28;20050;-79
2023/05/05 04:48:47;;;;;;;3.25;2.45;;;;;;;21.19;36.73;101549.03;4969464;28;20062;-79
2023/05/05 04:51:13;;;;;;;2.63;2.28;;;;;;;21.30;36.57;101563.75;5004827;28;20034;-78
2023/05/05 04:53:39;;;;;;;3.13;2.13;;;;;;;21.19;36.81;101583.47;4994257;28;20086;-81
2023/05/05 04:56:05;;;;;;;3.28;2.03;;;;;;;21.14;36.81;101567.25;4984149;28;20802;-81
2023/05/05 04:58:31;;;;;;;2.50;2.10;;;;;;;21.33;36.84;101553.63;4984733;28;20030;-80
2023/05/05 05:00:57;;;;;;;1.95;1.80;;;;;;;21.12;36.88;101503.03;4982715;28;20027;-80
2023/05/05 05:03:22;;;;;;;2.13;1.92;;;;;;;21.28;36.73;101539.25;4987518;28;20038;-80
2023/05/05 05:05:48;;;;;;;2.75;2.00;;;;;;;21.24;37.07;101594.41;4984059;28;20053;-80
2023/05/05 05:08:17;;;;;;;2.20;2.00;;;;;;;21.09;36.77;101557.16;4993741;28;20090;-80
2023/05/05 05:10:43;;;;;;;2.45;2.25;;;;;;;21.18;36.69;101570.38;5002691;28;20050;-81
2023/05/05 05:13:09;;;;;;;2.75;2.47;;;;;;;21.21;37.09;101578.84;4996503;28;20029;-80
2023/05/05 05:15:37;;;;;;;4.20;2.25;;;;;;;21.25;37.07;101537.78;4987428;28;20041;-81
2023/05/05 05:18:04;;;;;;;2.30;2.10;;;;;;;21.25;36.75;101540.44;4987544;28;20049;-80
2023/05/05 05:20:30;;;;;;;2.05;1.85;;;;;;;21.20;37.06;101556.00;4988266;28;20070;-81
2023/05/05 05:22:56;;;;;;;2.17;1.98;;;;;;;21.13;37.12;101539.94;4991430;28;20110;-80
2023/05/05 05:25:23;;;;;;;2.28;2.00;;;;;;;21.21;36.89;101557.63;4999131;28;20026;-80
2023/05/05 05:27:48;;;;;;;2.35;1.83;;;;;;;21.02;36.97;101548.28;5000848;28;20038;-80
2023/05/05 05:30:15;;;;;;;2.67;2.22;;;;;;;21.09;37.01;101564.28;4985467;28;20038;-81
2023/05/05 05:32:40;;;;;;;2.88;1.90;;;;;;;21.21;36.86;101578.84;5019816;28;20041;-78
2023/05/05 05:35:06;;;;;;;2.10;1.90;;;;;;;21.18;37.22;101580.97;5002789;28;20392;-80
2023/05/05 05:37:34;;;;;;;2.20;2.00;;;;;;;21.11;37.19;101581.66;4986762;28;20041;-81
2023/05/05 05:39:59;;;;;;;2.47;2.28;;;;;;;21.18;37.08;101607.47;4990783;28;20481;-81
2023/05/05 05:42:27;;;;;;;2.30;2.10;;;;;;;21.02;37.07;101605.69;5030358;28;20031;-79
2023/05/05 05:44:53;;;;;;;3.20;2.20;;;;;;;21.10;37.12;101635.63;5005901;28;20049;-78
2023/05/05 05:47:19;;;;;;;2.47;2.03;;;;;;;21.11;36.83;101633.81;5043713;28;20060;-78
2023/05/05 05:49:45;;;;;;;2.50;2.22;;;;;;;21.11;36.95;101616.09;5018296;28;20022;-77
2023/05/05 05:52:10;;;;;;;2.47;2.10;;;;;;;21.12;37.11;101620.38;5006785;28;20531;-78
2023/05/05 05:54:36;;;;;;;3.63;2.30;;;;;;;20.96;37.17;101617.78;5037728;28;20455;-78
2023/05/05 05:57:03;;;;;;;2.35;2.15;;;;;;;21.06;36.99;101623.72;5042133;28;20029;-78
2023/05/05 05:59:29;;;;;;;2.30;2.10;;;;;;;21.05;37.30;101621.25;5034630;28;20038;-78
2023/05/05 06:01:55;;;;;;;2.20;2.03;;;;;;;21.03;37.17;101626.72;5033465;28;20365;-78
2023/05/05 06:04:20;;;;;;;2.20;2.00;;;;;;;21.08;37.08;101629.69;5035020;28;20811;-78
2023/05/05 06:06:46;;;;;;;2.35;2.03;;;;;;;21.04;37.00;101614.31;5025859;28;20042;-78
2023/05/05 06:09:13;;;;;;;2.25;2.05;;;;;;;20.98;37.30;101609.66;5007426;28;20038;-78
2023/05/05 06:11:39;;;;;;;2.30;2.10;;;;;;;20.94;37.43;101619.75;5025911;28;20051;-78
2023/05/05 06:14:05;;;;;;;2.67;2.25;;;;;;;21.08;37.19;101640.25;5007201;28;20113;-78
2023/05/05 06:16:30;;;;;;;2.42;2.17;;;;;;;21.00;37.25;101616.44;5008534;28;20037;-78
2023/05/05 06:18:58;;;;;;;2.17;2.00;;;;;;;20.99;37.38;101638.59;5016791;28;20038;-78
2023/05/05 06:21:24;;;;;;;2.65;2.30;;;;;;;21.08;37.25;101653.50;5003990;28;20068;-79
2023/05/05 06:23:50;;;;;;;2.40;2.20;;;;;;;20.89;37.27;101627.38;5000477;28;20440;-80
2023/05/05 06:26:16;;;;;;;3.88;2.60;;;;;;;20.96;37.25;101646.06;5019252;28;20053;-79
2023/05/05 06:28:41;;;;;;;4.18;2.28;;;;;;;21.04;37.18;101660.13;5018668;28;20081;-79
2023/05/05 06:31:07;;;;;;;2.33;2.10;;;;;;;20.98;37.28;101647.56;5004139;28;20389;-78
2023/05/05 06:33:33;;;;;;;3.90;2.20;;;;;;;20.87;37.25;101620.63;5026784;28;20041;-78
2023/05/05 06:35:58;;;;;;;2.63;1.95;;;;;;;20.99;37.32;101646.56;5021707;28;20053;-78
2023/05/05 06:38:24;;;;;;;2.20;2.00;;;;;;;20.98;37.44;101633.47;5002532;28;20502;-78
2023/05/05 06:40:49;;;;;;;2.83;2.03;;;;;;;20.95;37.30;101631.19;5016356;28;20050;-78
2023/05/05 06:43:16;;;;;;;2.35;2.05;;;;;;;21.17;37.26;101654.31;4995569;28;20046;-78
2023/05/05 06:45:46;;;;;;;3.30;2.30;;;;;;;21.29;36.97;101653.00;4983178;28;20030;-79
2023/05/05 06:48:11;;;;;;;2.85;2.30;;;;;;;21.36;36.78;101656.63;5000951;28;20146;-78
2023/05/05 06:50:37;;;;;;;3.65;2.20;;;;;;;21.28;36.90;101648.69;5001578;28;20041;-78
2023/05/05 06:53:02;;;;;;;2.80;2.40;;;;;;;21.35;36.80;101662.09;4987274;28;20034;-78
2023/05/05 06:55:28;;;;;;;2.78;2.33;;;;;;;21.26;36.91;101645.41;4999455;28;20034;-78
2023/05/05 06:57:53;;;;;;;3.25;2.10;;;;;;;21.35;36.80;101670.03;4998855;28;20043;-79
2023/05/05 07:00:20;;;;;;;2.72;2.30;;;;;;;21.07;36.80;101629.84;5003365;28;20053;-78
2023/05/05 07:02:46;;;;;;;4.13;2.15;;;;;;;21.29;36.95;101668.06;4983898;28;20061;-79
2023/05/05 07:05:11;;;;;;;3.10;2.13;;;;;;;21.33;37.14;101674.66;5021419;28;20049;-79
2023/05/05 07:07:37;;;;;;;2.58;2.35;;;;;;;21.22;37.04;101651.19;5000685;28;20103;-79
2023/05/05 07:10:03;;;;;;;2.40;2.20;;;;;;;21.23;37.04;101652.81;5016232;28;20057;-78
2023/05/05 07:12:32;;;;;;;2.40;2.20;;;;;;;21.35;37.29;101676.16;5010521;28;20153;-78
2023/05/05 07:14:57;;;;;;;2.75;2.00;;;;;;;21.46;37.03;101669.69;4982875;28;20058;-78
2023/05/05 07:17:23;;;;;;;3.30;2.30;;;;;;;21.35;36.88;101660.25;4982343;28;20049;-82
2023/05/05 07:19:50;;;;;;;2.38;2.17;;;;;;;21.38;37.04;101665.25;4999671;28;20027;-80
2023/05/05 07:22:15;;;;;;;2.55;2.22;;;;;;;21.41;36.90;101656.13;4997778;28;20042;-80
2023/05/05 07:24:41;;;;;;;3.33;2.60;;;;;;;21.40;37.09;101657.13;4999523;28;20236;-78
2023/05/05 07:27:06;;;;;;;2.22;2.03;;;;;;;21.51;37.15;101674.47;5014985;28;20679;-79
2023/05/05 07:29:32;;;;;;;3.67;2.10;;;;;;;21.52;37.05;101682.25;5000412;28;20124;-79
2023/05/05 07:31:57;;;;;;;7.43;2.40;;;;;;;21.38;37.10;101661.75;4999765;28;20041;-79
2023/05/05 07:34:23;;;;;;;2.78;2.38;;;;;;;21.49;37.29;101677.28;4997048;28;20038;-78
2023/05/05 07:36:48;;;;;;;3.72;2.60;;;;;;;21.38;37.20;101657.28;4997051;28;20031;-81
2023/05/05 07:39:14;;;;;;;3.10;2.40;;;;;;;21.35;37.37;101654.97;4997351;28;20046;-78
2023/05/05 07:41:41;;;;;;;3.15;2.20;;;;;;;21.45;37.15;101660.06;4994298;28;20073;-78
2023/05/05 07:44:07;;;;;;;5.55;3.22;;;;;;;21.57;38.07;101666.69;4991915;28;20042;-79
2023/05/05 07:46:32;;;;;;;4.78;3.03;;;;;;;21.55;37.86;101681.94;5000506;28;20125;-81
2023/05/05 07:48:58;;;;;;;5.68;2.70;;;;;;;21.64;37.48;101682.72;4984847;28;20042;-80
2023/05/05 07:51:23;;;;;;;3.22;2.35;;;;;;;21.71;37.53;101678.38;5011793;28;20049;-81
2023/05/05 07:53:49;;;;;;;5.75;2.72;;;;;;;21.73;37.46;101684.34;4965074;28;20045;-80
2023/05/05 07:56:15;;;;;;;3.97;2.67;;;;;;;21.71;37.34;101678.38;4998578;28;20134;-80
2023/05/05 07:58:41;;;;;;;3.63;2.60;;;;;;;21.75;37.55;101686.81;4987596;28;20023;-81
2023/05/05 08:01:09;;;;;;;3.20;2.45;;;;;;;21.67;37.36;101672.59;4984958;28;20528;-81
2023/05/05 08:03:35;;;;;;;4.50;2.50;;;;;;;21.60;37.62;101657.56;4963192;28;20712;-80
2023/05/05 08:06:08;;;;;;;3.03;2.45;;;;;;;21.79;37.52;101686.31;4981295;28;20041;-78
2023/05/05 08:08:33;;;;;;;3.80;2.40;;;;;;;21.53;37.37;101651.25;5004955;28;20266;-77
2023/05/05 08:11:00;;;;;;;2.45;2.20;;;;;;;21.81;37.32;101686.97;4965821;28;20144;-78
2023/05/05 08:13:26;;;;;;;3.03;2.50;;;;;;;21.75;37.30;101679.69;4959484;28;20384;-79
2023/05/05 08:15:52;;;;;;;2.85;2.35;;;;;;;21.80;37.62;101687.97;5000577;28;20050;-81
2023/05/05 08:18:18;;;;;;;3.35;2.42;;;;;;;21.80;37.43;101685.31;4988440;28;20061;-79
2023/05/05 08:20:43;;;;;;;3.38;2.40;;;;;;;21.82;37.28;101677.19;4993765;28;20049;-78
2023/05/05 08:23:09;;;;;;;3.70;2.50;;;;;;;21.91;37.22;101689.41;4971189;28;20061;-78
2023/05/05 08:25:34;;;;;;;2.80;2.30;;;;;;;21.84;37.21;101680.47;4959995;28;20034;-79
2023/05/05 08:28:00;;;;;;;3.80;2.40;;;;;;;21.84;37.45;101680.47;4982272;28;20042;-78
2023/05/05 08:30:26;;;;;;;5.68;2.50;;;;;;;21.94;37.22;101689.06;4956036;28;20093;-78
2023/05/05 08:32:51;;;;;;;2.85;2.17;;;;;;;21.97;37.31;101686.06;4993690;28;20104;-79
2023/05/05 08:35:17;;;;;;;4.28;2.67;;;;;;;21.96;37.50;101693.19;4976415;28;20038;-78
2023/05/05 08:37:43;;;;;;;5.70;2.80;;;;;;;21.88;37.18;101669.34;4990648;28;20030;-78
2023/05/05 08:40:15;;;;;;;3.53;2.42;;;;;;;22.00;37.07;101683.88;5011646;28;20574;-79
2023/05/05 08:42:41;;;;;;;3.08;2.60;;;;;;;21.96;37.35;101669.31;4972979;28;20034;-79
2023/05/05 08:45:08;;;;;;;3.38;2.17;;;;;;;22.09;37.55;101684.72;5013733;28;20038;-79
2023/05/05 08:47:37;;;;;;;3.03;2.47;;;;;;;22.23;37.36;101689.25;4989266;28;20038;-79
2023/05/05 08:50:04;;;;;;;2.97;2.53;;;;;;;22.11;37.19;101663.31;4978835;28;20022;-80
2023/05/05 08:52:39;;;;;;;3.53;2.20;;;;;;;22.29;37.25;101680.63;5013617;28;20050;-79
2023/05/05 08:55:32;;;;;;;2.90;2.58;;;;;;;21.99;37.16;101629.19;4987487;28;20054;-80
2023/05/05 08:58:05;;;;;;;3.50;2.53;;;;;;;22.41;37.36;101686.31;5002919;28;20064;-81
2023/05/05 09:00:31;;;;;;;3.58;2.92;;;;;;;22.47;37.07;101687.47;4967699;28;20042;-78
2023/05/05 09:02:58;;;;;;;3.95;3.03;;;;;;;22.36;37.29;101662.16;4998765;28;20038;-79
2023/05/05 09:05:25;;;;;;;4.07;2.67;;;;;;;22.37;37.22;101655.84;4986730;28;20038;-79
2023/05/05 09:07:51;;;;;;;4.25;2.53;;;;;;;22.57;37.14;101680.91;4994873;28;20030;-81
2023/05/05 09:10:17;;;;;;;3.40;2.53;;;;;;;22.61;37.22;101682.19;5001919;28;20038;-78
2023/05/05 09:12:43;;;;;;;4.18;2.58;;;;;;;22.64;37.31;101678.38;4960919;28;20492;-78
2023/05/05 09:15:10;;;;;;;4.30;2.50;;;;;;;22.52;37.25;101651.41;4975987;28;20053;-79
2023/05/05 09:17:37;;;;;;;4.45;2.85;;;;;;;22.67;37.50;101675.38;4987784;28;20034;-78
2023/05/05 09:20:08;;;;;;;3.50;2.63;;;;;;;22.66;37.38;101678.22;4958268;28;20057;-80
2023/05/05 09:22:39;;;;;;;4.65;2.60;;;;;;;22.54;37.40;101652.06;5004551;28;20049;-81
2023/05/05 09:25:06;;;;;;;3.63;2.58;;;;;;;22.75;37.21;101677.94;4957474;28;20044;-82
2023/05/05 09:27:36;;;;;;;3.65;2.47;;;;;;;22.78;37.12;101674.94;5002882;28;20038;-80
2023/05/05 09:30:03;;;;;;;3.17;2.78;;;;;;;22.77;37.35;101673.28;4974415;28;20316;-81
2023/05/05 09:32:28;;;;;;;3.13;2.83;;;;;;;22.74;37.19;101657.72;5015524;28;20051;-81
2023/05/05 09:34:59;;;;;;;3.05;2.53;;;;;;;22.73;37.46;101653.41;4991911;28;20455;-81
2023/05/05 09:37:30;;;;;;;4.90;3.05;;;;;;;22.85;37.11;101675.09;5016813;28;20045;-81
2023/05/05 09:39:58;;;;;;;3.50;2.40;;;;;;;22.90;37.20;101676.19;4974884;28;20046;-79
2023/05/05 09:42:23;;;;;;;4.15;3.28;;;;;;;22.92;37.13;101676.00;4981549;28;20409;-78
2023/05/05 09:44:50;;;;;;;5.15;2.50;;;;;;;22.83;37.08;101662.00;4971947;28;20137;-81
2023/05/05 09:47:16;;;;;;;3.42;2.38;;;;;;;22.75;37.40;101656.69;4996097;28;20062;-80
2023/05/05 09:49:41;;;;;;;5.95;3.05;;;;;;;22.79;37.39;101673.91;4978094;28;20439;-80
2023/05/05 09:52:11;;;;;;;4.03;3.20;;;;;;;;;;4982937;28;20046;-78
2023/05/05 09:54:36;;;;;;;4.03;2.90;;;;;;;22.80;37.28;101664.13;4972038;28;20644;-80
2023/05/05 09:57:02;;;;;;;4.63;2.97;;;;;;;22.75;37.33;101663.84;4982841;28;20052;-80
2023/05/05 09:59:27;;;;;;;4.05;2.80;;;;;;;22.64;36.97;101638.56;4961757;28;20039;-77
2023/05/05 10:02:10;;;;;;;4.47;3.42;;;;;;;22.95;37.13;101666.84;4970794;28;20085;-79
2023/05/05 10:04:36;;;;;;;4.47;3.50;;;;;;;23.14;36.91;101684.94;4971109;28;20315;-78
2023/05/05 10:07:02;;;;;;;4.88;3.10;;;;;;;22.94;36.91;101652.75;4981902;28;20046;-80
2023/05/05 10:09:28;;;;;;;5.13;3.05;;;;;;;22.96;37.09;101669.31;4946142;28;20046;-77
2023/05/05 10:11:56;;;;;;;4.93;3.22;;;;;;;22.80;37.34;101659.66;4974934;28;20039;-79
2023/05/05 10:14:23;;;;;;;5.35;3.22;;;;;;;22.89;37.35;101679.03;4990863;28;20042;-80
2023/05/05 10:16:50;;;;;;;4.03;3.20;;;;;;;22.91;37.28;101682.34;4967653;28;20038;-81
2023/05/05 10:19:20;;;;;;;3.97;2.72;;;;;;;22.84;37.24;101663.63;4995830;28;20064;-78
2023/05/05 10:21:51;;;;;;;4.22;3.08;;;;;;;22.77;37.36;101669.78;4955139;28;20038;-80
2023/05/05 10:24:23;;;;;;;3.88;3.15;;;;;;;22.72;37.75;101674.81;4982381;28;20129;-81
2023/05/05 10:26:50;;;;;;;4.47;3.33;;;;;;;22.51;37.83;101643.63;4983098;28;20038;-81
2023/05/05 10:29:28;;;;;;;3.83;3.30;;;;;;;22.40;37.66;101626.28;4996792;28;20042;-81
2023/05/05 10:32:03;;;;;;;6.00;3.60;;;;;;;22.58;37.66;101657.84;4977978;28;20053;-81
2023/05/05 10:34:37;;;;;;;4.70;3.58;;;;;;;22.58;38.13;101666.63;4967695;28;20046;-81
2023/05/05 10:37:03;;;;;;;3.78;3.20;;;;;;;22.39;37.85;101635.25;4998442;28;20041;-81
2023/05/05 10:39:30;;;;;;;5.18;3.28;;;;;;;22.47;38.00;101647.66;4979283;28;20065;-81
2023/05/05 10:42:01;;;;;;;4.57;3.45;;;;;;;22.52;37.70;101656.72;4993974;28;20112;-79
2023/05/05 10:44:30;;;;;;;5.32;3.33;;;;;;;22.55;37.91;101672.28;4984076;28;20025;-81
2023/05/05 10:46:56;;;;;;;;;;;;;;;22.55;37.81;101664.34;4990483;28;20045;-81
2023/05/05 10:49:45;;;;;;;3.97;3.22;;;;;;;22.46;38.29;101657.44;4986440;28;19929;-82
2023/05/05 10:52:32;;;;;;;4.43;3.22;;;;;;;22.52;38.11;101667.34;4971663;28;20097;-79
2023/05/05 10:55:15;;;;;;;3.75;3.20;;;;;;;22.50;38.31;101656.09;4970928;28;20062;-79
2023/05/05 10:57:43;;;;;;;4.28;3.38;;;;;;;22.49;38.16;101670.38;4999541;28;20030;-79
2023/05/05 11:00:10;;;;;;;3.80;3.25;;;;;;;22.52;37.98;101651.41;4953577;28;20057;-80
2023/05/05 11:02:36;;;;;;;5.03;2.88;;;;;;;22.48;38.34;101650.13;4983318;28;20096;-79
2023/05/05 11:05:13;;;;;;;4.82;3.38;;;;;;;22.47;38.02;101653.78;4973584;28;20166;-79
2023/05/05 11:07:41;;;;;;;3.78;2.95;;;;;;;22.39;38.34;101637.91;4995133;28;20034;-79
2023/05/05 11:10:09;;;;;;;5.70;3.42;;;;;;;22.47;38.26;101647.66;4985267;28;20054;-79
2023/05/05 11:12:53;;;;;;;5.78;3.80;;;;;;;22.46;38.26;101632.75;4996664;28;20038;-80
2023/05/05 11:15:25;;;;;;;5.88;3.15;;;;;;;22.46;38.10;101640.69;4955438;28;20062;-79
2023/05/05 11:17:51;;;;;;;4.18;3.47;;;;;;;22.40;38.09;101636.09;4999128;28;20030;-80
2023/05/05 11:20:42;;;;;;;5.43;3.47;;;;;;;22.23;38.10;101598.22;4957797;28;20544;-79
2023/05/05 11:23:07;;;;;;;4.32;3.35;;;;;;;22.42;38.40;101634.91;4994223;28;20779;-79
2023/05/05 11:25:36;;;;;;;4.28;3.42;;;;;;;22.43;38.29;101625.09;4955326;28;20061;-84
2023/05/05 11:28:22;;;;;;;3.70;3.00;;;;;;;22.31;38.67;101630.03;4980028;28;20034;-78
2023/05/05 11:30:53;;;;;;;4.20;2.97;;;;;;;22.37;38.38;101629.31;4973564;28;20034;-79
2023/05/05 11:33:42;;;;;;;3.65;3.22;;;;;;;22.30;38.20;101617.75;4995199;28;20102;-78